sensor_id;sensor_type;location;lat;lon;timestamp;pressure;altitude;pressure_sealevel;temperature;humidity
61906;BME280;47863;55.766;37.672;2023-03-02T00:00:41;99116.91;;;-2.39;61.09
61906;BME280;47863;55.766;37.672;2023-03-02T00:03:08;99137.59;;;-2.20;60.76
61906;BME280;47863;55.766;37.672;2023-03-02T00:05:35;99137.28;;;-2.15;60.98
61906;BME280;47863;55.766;37.672;2023-03-02T00:08:02;99132.91;;;-2.15;60.78
61906;BME280;47863;55.766;37.672;2023-03-02T00:10:28;99132.91;;;-2.15;60.84
61906;BME280;47863;55.766;37.672;2023-03-02T00:12:54;99124.38;;;-2.18;60.81
61906;BME280;47863;55.766;37.672;2023-03-02T00:15:20;99129.81;;;-2.22;60.56
61906;BME280;47863;55.766;37.672;2023-03-02T00:17:45;99037.84;;;-2.74;60.82
61906;BME280;47863;55.766;37.672;2023-03-02T00:20:11;99116.03;;;-2.25;60.98
61906;BME280;47863;55.766;37.672;2023-03-02T00:22:38;99122.31;;;-2.28;61.05
61906;BME280;47863;55.766;37.672;2023-03-02T00:25:04;99129.94;;;-2.23;61.21
61906;BME280;47863;55.766;37.672;2023-03-02T00:27:30;99105.88;;;-2.44;60.96
61906;BME280;47863;55.766;37.672;2023-03-02T00:29:56;99124.28;;;-2.31;61.13
61906;BME280;47863;55.766;37.672;2023-03-02T00:32:22;99117.66;;;-2.37;61.00
61906;BME280;47863;55.766;37.672;2023-03-02T00:34:48;99126.16;;;-2.33;61.58
61906;BME280;47863;55.766;37.672;2023-03-02T00:37:13;99134.03;;;-2.33;61.55
61906;BME280;47863;55.766;37.672;2023-03-02T00:39:39;99145.50;;;-2.34;61.77
61906;BME280;47863;55.766;37.672;2023-03-02T00:42:04;99152.41;;;-2.33;61.66
61906;BME280;47863;55.766;37.672;2023-03-02T00:44:30;99134.72;;;-2.44;61.48
61906;BME280;47863;55.766;37.672;2023-03-02T00:46:55;99165.34;;;-2.30;61.51
61906;BME280;47863;55.766;37.672;2023-03-02T00:49:21;99168.63;;;-2.27;61.25
61906;BME280;47863;55.766;37.672;2023-03-02T00:51:47;99172.00;;;-2.25;61.35
61906;BME280;47863;55.766;37.672;2023-03-02T00:54:12;99161.59;;;-2.26;61.59
61906;BME280;47863;55.766;37.672;2023-03-02T00:56:38;99169.56;;;-2.28;61.65
61906;BME280;47863;55.766;37.672;2023-03-02T00:59:05;99163.00;;;-2.35;61.65
61906;BME280;47863;55.766;37.672;2023-03-02T01:01:31;99153.81;;;-2.42;61.80
61906;BME280;47863;55.766;37.672;2023-03-02T01:03:56;99164.41;;;-2.58;61.51
61906;BME280;47863;55.766;37.672;2023-03-02T01:06:22;99123.47;;;-3.04;61.59
61906;BME280;47863;55.766;37.672;2023-03-02T01:08:48;99172.06;;;-2.98;61.99
61906;BME280;47863;55.766;37.672;2023-03-02T01:11:18;99151.50;;;-3.20;61.94
61906;BME280;47863;55.766;37.672;2023-03-02T01:13:45;99163.47;;;-3.16;62.04
61906;BME280;47863;55.766;37.672;2023-03-02T01:16:11;99155.97;;;-3.22;62.52
61906;BME280;47863;55.766;37.672;2023-03-02T01:18:37;99175.56;;;-3.13;62.52
61906;BME280;47863;55.766;37.672;2023-03-02T01:21:13;99184.75;;;-3.06;61.93
61906;BME280;47863;55.766;37.672;2023-03-02T01:23:39;99171.84;;;-3.09;61.57
61906;BME280;47863;55.766;37.672;2023-03-02T01:26:06;99153.13;;;-3.03;61.72
61906;BME280;47863;55.766;37.672;2023-03-02T01:28:32;99134.88;;;-3.05;61.31
61906;BME280;47863;55.766;37.672;2023-03-02T01:30:57;99183.53;;;-2.70;61.05
61906;BME280;47863;55.766;37.672;2023-03-02T01:33:25;99183.06;;;-2.63;61.06
61906;BME280;47863;55.766;37.672;2023-03-02T01:35:50;99184.44;;;-2.57;60.86
61906;BME280;47863;55.766;37.672;2023-03-02T01:38:16;99187.56;;;-2.50;60.91
61906;BME280;47863;55.766;37.672;2023-03-02T01:40:41;99151.31;;;-2.58;61.15
61906;BME280;47863;55.766;37.672;2023-03-02T01:43:13;99160.38;;;-2.49;61.19
61906;BME280;47863;55.766;37.672;2023-03-02T01:48:22;99176.50;;;-2.70;61.30
61906;BME280;47863;55.766;37.672;2023-03-02T01:50:50;99188.25;;;-2.77;61.12
61906;BME280;47863;55.766;37.672;2023-03-02T01:53:16;99181.59;;;-2.83;61.31
61906;BME280;47863;55.766;37.672;2023-03-02T01:55:43;99196.13;;;-2.77;61.46
61906;BME280;47863;55.766;37.672;2023-03-02T01:58:11;99209.16;;;-2.75;61.28
61906;BME280;47863;55.766;37.672;2023-03-02T02:00:38;99206.38;;;-2.72;61.96
61906;BME280;47863;55.766;37.672;2023-03-02T02:03:09;99206.44;;;-2.74;61.84
61906;BME280;47863;55.766;37.672;2023-03-02T02:05:37;99215.22;;;-2.75;61.87
61906;BME280;47863;55.766;37.672;2023-03-02T02:08:04;99217.00;;;-2.75;61.86
61906;BME280;47863;55.766;37.672;2023-03-02T02:10:30;99187.50;;;-2.93;61.62
61906;BME280;47863;55.766;37.672;2023-03-02T02:12:57;99209.97;;;-2.75;61.63
61906;BME280;47863;55.766;37.672;2023-03-02T02:15:22;99204.75;;;-2.75;61.61
61906;BME280;47863;55.766;37.672;2023-03-02T02:17:48;99192.84;;;-2.81;61.54
61906;BME280;47863;55.766;37.672;2023-03-02T02:20:35;99202.13;;;-2.75;62.00
61906;BME280;47863;55.766;37.672;2023-03-02T02:28:22;99191.09;;;-2.80;61.61
61906;BME280;47863;55.766;37.672;2023-03-02T02:30:54;99186.47;;;-2.76;61.40
61906;BME280;47863;55.766;37.672;2023-03-02T02:33:24;99158.00;;;-2.97;61.46
61906;BME280;47863;55.766;37.672;2023-03-02T02:35:59;99204.28;;;-2.67;61.49
61906;BME280;47863;55.766;37.672;2023-03-02T02:38:26;99165.78;;;-2.81;61.22
61906;BME280;47863;55.766;37.672;2023-03-02T02:40:57;99124.19;;;-3.16;62.18
61906;BME280;47863;55.766;37.672;2023-03-02T02:43:26;99218.97;;;-2.65;61.73
61906;BME280;47863;55.766;37.672;2023-03-02T02:45:55;99208.03;;;-2.71;61.66
61906;BME280;47863;55.766;37.672;2023-03-02T02:48:23;99223.59;;;-2.68;61.72
61906;BME280;47863;55.766;37.672;2023-03-02T02:50:50;99238.56;;;-2.70;61.96
61906;BME280;47863;55.766;37.672;2023-03-02T02:56:05;99225.91;;;-2.78;62.24
61906;BME280;47863;55.766;37.672;2023-03-02T02:58:48;99209.31;;;-2.93;62.06
61906;BME280;47863;55.766;37.672;2023-03-02T03:01:17;99224.41;;;-2.82;61.93
61906;BME280;47863;55.766;37.672;2023-03-02T03:03:59;99237.22;;;-2.77;62.03
61906;BME280;47863;55.766;37.672;2023-03-02T03:06:27;99228.31;;;-2.89;61.91
61906;BME280;47863;55.766;37.672;2023-03-02T03:08:59;99244.50;;;-2.83;62.04
61906;BME280;47863;55.766;37.672;2023-03-02T03:11:28;99178.03;;;-3.26;62.16
61906;BME280;47863;55.766;37.672;2023-03-02T03:16:27;99253.31;;;-2.84;62.40
61906;BME280;47863;55.766;37.672;2023-03-02T03:18:55;99259.69;;;-2.88;62.50
61906;BME280;47863;55.766;37.672;2023-03-02T03:21:22;99238.75;;;-3.04;62.32
61906;BME280;47863;55.766;37.672;2023-03-02T03:23:47;99246.66;;;-2.89;62.53
61906;BME280;47863;55.766;37.672;2023-03-02T03:26:14;99257.16;;;-2.89;62.34
61906;BME280;47863;55.766;37.672;2023-03-02T03:28:40;99253.69;;;-2.90;62.21
61906;BME280;47863;55.766;37.672;2023-03-02T03:31:05;99247.25;;;-2.84;62.26
61906;BME280;47863;55.766;37.672;2023-03-02T03:33:31;99242.75;;;-2.82;62.16
61906;BME280;47863;55.766;37.672;2023-03-02T03:35:56;99155.94;;;-3.36;61.97
61906;BME280;47863;55.766;37.672;2023-03-02T03:38:22;99237.97;;;-2.90;62.50
61906;BME280;47863;55.766;37.672;2023-03-02T03:40:47;99241.06;;;-2.83;62.17
61906;BME280;47863;55.766;37.672;2023-03-02T03:43:13;99238.34;;;-2.82;62.44
61906;BME280;47863;55.766;37.672;2023-03-02T03:45:39;99215.66;;;-2.97;62.43
61906;BME280;47863;55.766;37.672;2023-03-02T03:48:05;99212.13;;;-2.96;62.22
61906;BME280;47863;55.766;37.672;2023-03-02T03:50:31;99224.09;;;-2.92;62.64
61906;BME280;47863;55.766;37.672;2023-03-02T03:52:56;99188.84;;;-3.16;62.40
61906;BME280;47863;55.766;37.672;2023-03-02T03:55:23;99214.44;;;-3.06;62.45
61906;BME280;47863;55.766;37.672;2023-03-02T03:57:48;99221.19;;;-3.02;62.58
61906;BME280;47863;55.766;37.672;2023-03-02T04:00:15;99222.28;;;-3.06;62.88
61906;BME280;47863;55.766;37.672;2023-03-02T04:02:44;99203.56;;;-3.14;62.63
61906;BME280;47863;55.766;37.672;2023-03-02T04:05:09;99223.97;;;-3.05;62.67
61906;BME280;47863;55.766;37.672;2023-03-02T04:07:36;99225.75;;;-3.05;62.56
61906;BME280;47863;55.766;37.672;2023-03-02T04:10:03;99212.78;;;-3.23;62.63
61906;BME280;47863;55.766;37.672;2023-03-02T04:12:30;99238.75;;;-3.04;62.26
61906;BME280;47863;55.766;37.672;2023-03-02T04:14:56;99216.81;;;-3.17;62.60
61906;BME280;47863;55.766;37.672;2023-03-02T04:17:21;99249.13;;;-3.02;62.24
61906;BME280;47863;55.766;37.672;2023-03-02T04:19:47;99244.75;;;-3.02;62.31
61906;BME280;47863;55.766;37.672;2023-03-02T04:22:13;99249.06;;;-3.01;62.50
61906;BME280;47863;55.766;37.672;2023-03-02T04:24:40;99234.88;;;-3.12;62.19
61906;BME280;47863;55.766;37.672;2023-03-02T04:27:06;99226.03;;;-3.10;62.39
61906;BME280;47863;55.766;37.672;2023-03-02T04:29:32;99259.38;;;-2.97;62.92
61906;BME280;47863;55.766;37.672;2023-03-02T04:31:58;99235.00;;;-3.14;62.08
61906;BME280;47863;55.766;37.672;2023-03-02T04:34:23;99230.94;;;-3.20;62.56
61906;BME280;47863;55.766;37.672;2023-03-02T04:36:52;99264.00;;;-3.03;62.23
61906;BME280;47863;55.766;37.672;2023-03-02T04:39:18;99267.59;;;-3.04;62.63
61906;BME280;47863;55.766;37.672;2023-03-02T04:41:45;99255.75;;;-3.11;62.39
61906;BME280;47863;55.766;37.672;2023-03-02T04:44:12;99268.25;;;-3.00;62.20
61906;BME280;47863;55.766;37.672;2023-03-02T04:46:38;99277.78;;;-2.99;62.64
61906;BME280;47863;55.766;37.672;2023-03-02T04:49:05;99289.09;;;-2.99;62.33
61906;BME280;47863;55.766;37.672;2023-03-02T04:51:35;99289.09;;;-2.99;62.17
61906;BME280;47863;55.766;37.672;2023-03-02T04:54:04;99294.28;;;-2.97;62.33
61906;BME280;47863;55.766;37.672;2023-03-02T04:56:31;99296.81;;;-2.95;62.41
61906;BME280;47863;55.766;37.672;2023-03-02T04:58:57;99313.28;;;-2.93;62.28
61906;BME280;47863;55.766;37.672;2023-03-02T05:01:24;99237.22;;;-3.38;62.50
61906;BME280;47863;55.766;37.672;2023-03-02T05:03:50;99315.84;;;-2.92;62.25
61906;BME280;47863;55.766;37.672;2023-03-02T05:06:16;99281.28;;;-3.14;62.09
61906;BME280;47863;55.766;37.672;2023-03-02T05:08:42;99300.63;;;-3.01;62.08
61906;BME280;47863;55.766;37.672;2023-03-02T05:11:13;99328.06;;;-2.92;62.42
61906;BME280;47863;55.766;37.672;2023-03-02T05:13:47;99314.03;;;-2.91;62.29
61906;BME280;47863;55.766;37.672;2023-03-02T05:16:13;99318.44;;;-2.92;62.36
61906;BME280;47863;55.766;37.672;2023-03-02T05:18:39;99329.59;;;-2.88;62.60
61906;BME280;47863;55.766;37.672;2023-03-02T05:21:04;99320.41;;;-2.95;62.30
61906;BME280;47863;55.766;37.672;2023-03-02T05:23:30;99311.09;;;-3.01;62.22
61906;BME280;47863;55.766;37.672;2023-03-02T05:25:56;99305.78;;;-3.00;62.24
61906;BME280;47863;55.766;37.672;2023-03-02T05:28:23;99313.88;;;-2.88;62.10
61906;BME280;47863;55.766;37.672;2023-03-02T05:30:49;99329.06;;;-2.79;62.19
61906;BME280;47863;55.766;37.672;2023-03-02T05:33:15;99336.69;;;-2.74;62.29
61906;BME280;47863;55.766;37.672;2023-03-02T05:35:41;99295.69;;;-2.91;62.49
61906;BME280;47863;55.766;37.672;2023-03-02T05:38:08;99329.47;;;-2.71;62.35
61906;BME280;47863;55.766;37.672;2023-03-02T05:40:33;99341.28;;;-2.64;62.30
61906;BME280;47863;55.766;37.672;2023-03-02T05:42:59;99342.06;;;-2.62;61.94
61906;BME280;47863;55.766;37.672;2023-03-02T05:45:30;99341.78;;;-2.57;62.32
61906;BME280;47863;55.766;37.672;2023-03-02T05:47:56;99338.91;;;-2.52;62.23
61906;BME280;47863;55.766;37.672;2023-03-02T05:50:22;99330.94;;;-2.51;62.04
61906;BME280;47863;55.766;37.672;2023-03-02T05:52:48;99334.88;;;-2.44;61.98
61906;BME280;47863;55.766;37.672;2023-03-02T05:55:15;99337.16;;;-2.37;62.16
61906;BME280;47863;55.766;37.672;2023-03-02T05:57:41;99325.06;;;-2.40;61.84
61906;BME280;47863;55.766;37.672;2023-03-02T06:00:10;99337.53;;;-2.29;62.16
61906;BME280;47863;55.766;37.672;2023-03-02T06:02:36;99329.31;;;-2.23;62.10
61906;BME280;47863;55.766;37.672;2023-03-02T06:05:10;99331.97;;;-1.94;61.80
61906;BME280;47863;55.766;37.672;2023-03-02T06:07:36;99329.25;;;-1.78;61.81
61906;BME280;47863;55.766;37.672;2023-03-02T06:10:03;99337.38;;;-1.54;61.33
61906;BME280;47863;55.766;37.672;2023-03-02T06:12:29;99316.72;;;-1.46;61.33
61906;BME280;47863;55.766;37.672;2023-03-02T06:14:54;99269.56;;;-1.48;60.94
61906;BME280;47863;55.766;37.672;2023-03-02T06:17:20;99338.66;;;-0.91;60.70
61906;BME280;47863;55.766;37.672;2023-03-02T06:19:46;99320.63;;;-0.70;60.56
61906;BME280;47863;55.766;37.672;2023-03-02T06:22:11;99342.72;;;-0.33;60.40
61906;BME280;47863;55.766;37.672;2023-03-02T06:24:37;99300.56;;;-0.46;60.31
61906;BME280;47863;55.766;37.672;2023-03-02T06:27:02;99334.31;;;-0.25;59.96
61906;BME280;47863;55.766;37.672;2023-03-02T06:29:28;99319.66;;;-0.29;60.28
61906;BME280;47863;55.766;37.672;2023-03-02T06:31:53;99350.22;;;-0.01;60.52
61906;BME280;47863;55.766;37.672;2023-03-02T06:34:19;99343.25;;;0.11;60.07
61906;BME280;47863;55.766;37.672;2023-03-02T06:36:44;99295.97;;;-0.04;60.21
61906;BME280;47863;55.766;37.672;2023-03-02T06:39:10;99338.50;;;0.29;60.40
61906;BME280;47863;55.766;37.672;2023-03-02T06:41:44;99340.50;;;0.38;60.07
61906;BME280;47863;55.766;37.672;2023-03-02T06:44:10;99326.56;;;0.49;60.28
61906;BME280;47863;55.766;37.672;2023-03-02T06:46:37;99324.28;;;0.44;60.20
61906;BME280;47863;55.766;37.672;2023-03-02T06:49:03;99330.03;;;0.49;60.04
61906;BME280;47863;55.766;37.672;2023-03-02T06:51:29;99326.38;;;0.52;60.30
61906;BME280;47863;55.766;37.672;2023-03-02T06:53:54;99295.91;;;0.48;60.49
61906;BME280;47863;55.766;37.672;2023-03-02T06:56:20;99310.75;;;0.62;60.40
61906;BME280;47863;55.766;37.672;2023-03-02T06:58:45;99318.88;;;0.83;60.00
61906;BME280;47863;55.766;37.672;2023-03-02T07:01:11;99320.75;;;0.93;59.96
61906;BME280;47863;55.766;37.672;2023-03-02T07:03:37;99310.84;;;0.97;60.07
61906;BME280;47863;55.766;37.672;2023-03-02T07:06:03;99297.13;;;0.92;59.98
61906;BME280;47863;55.766;37.672;2023-03-02T07:08:29;99283.00;;;0.93;59.57
61906;BME280;47863;55.766;37.672;2023-03-02T07:10:55;99307.59;;;1.05;59.42
61906;BME280;47863;55.766;37.672;2023-03-02T07:13:21;99250.78;;;0.76;59.53
61906;BME280;47863;55.766;37.672;2023-03-02T07:15:46;99307.03;;;1.01;59.46
61906;BME280;47863;55.766;37.672;2023-03-02T07:18:12;99315.94;;;0.87;59.61
61906;BME280;47863;55.766;37.672;2023-03-02T07:20:37;99318.31;;;0.66;59.67
61906;BME280;47863;55.766;37.672;2023-03-02T07:23:04;99315.41;;;0.45;60.03
61906;BME280;47863;55.766;37.672;2023-03-02T07:25:30;99289.31;;;0.16;59.83
61906;BME280;47863;55.766;37.672;2023-03-02T07:27:57;99315.03;;;0.13;60.27
61906;BME280;47863;55.766;37.672;2023-03-02T07:30:22;99325.56;;;0.13;60.40
61906;BME280;47863;55.766;37.672;2023-03-02T07:32:49;99296.81;;;-0.03;60.32
61906;BME280;47863;55.766;37.672;2023-03-02T07:35:15;99324.81;;;0.24;60.00
61906;BME280;47863;55.766;37.672;2023-03-02T07:37:42;99297.53;;;0.25;59.93
61906;BME280;47863;55.766;37.672;2023-03-02T07:40:09;99305.81;;;0.44;59.87
61906;BME280;47863;55.766;37.672;2023-03-02T07:42:36;99319.84;;;0.45;60.05
61906;BME280;47863;55.766;37.672;2023-03-02T07:45:02;99327.84;;;0.43;60.14
61906;BME280;47863;55.766;37.672;2023-03-02T07:47:29;99327.34;;;0.38;60.25
61906;BME280;47863;55.766;37.672;2023-03-02T07:49:55;99322.16;;;0.24;60.09
61906;BME280;47863;55.766;37.672;2023-03-02T07:52:23;99331.22;;;0.19;59.95
61906;BME280;47863;55.766;37.672;2023-03-02T07:54:49;99327.78;;;0.06;60.37
61906;BME280;47863;55.766;37.672;2023-03-02T07:57:15;99310.19;;;-0.06;60.19
61906;BME280;47863;55.766;37.672;2023-03-02T07:59:42;99334.00;;;0.05;60.53
61906;BME280;47863;55.766;37.672;2023-03-02T08:02:11;99329.34;;;-0.04;59.64
61906;BME280;47863;55.766;37.672;2023-03-02T08:04:37;99307.44;;;-0.30;59.88
61906;BME280;47863;55.766;37.672;2023-03-02T08:07:03;99315.66;;;-0.35;59.55
61906;BME280;47863;55.766;37.672;2023-03-02T08:09:29;99323.22;;;-0.30;59.84
61906;BME280;47863;55.766;37.672;2023-03-02T08:11:54;99314.50;;;-0.31;59.73
61906;BME280;47863;55.766;37.672;2023-03-02T08:14:20;99313.53;;;-0.30;59.75
61906;BME280;47863;55.766;37.672;2023-03-02T08:16:45;99312.19;;;-0.23;59.86
61906;BME280;47863;55.766;37.672;2023-03-02T08:19:11;99289.97;;;-0.06;59.79
61906;BME280;47863;55.766;37.672;2023-03-02T08:21:37;99279.63;;;0.30;59.38
61906;BME280;47863;55.766;37.672;2023-03-02T08:24:03;99257.97;;;0.74;58.81
61906;BME280;47863;55.766;37.672;2023-03-02T08:26:29;99269.56;;;1.20;58.08
61906;BME280;47863;55.766;37.672;2023-03-02T08:28:55;99241.88;;;1.26;57.94
61906;BME280;47863;55.766;37.672;2023-03-02T08:31:20;99251.75;;;1.35;57.89
61906;BME280;47863;55.766;37.672;2023-03-02T08:33:46;99278.28;;;1.56;57.65
61906;BME280;47863;55.766;37.672;2023-03-02T08:36:14;99293.88;;;1.48;57.75
61906;BME280;47863;55.766;37.672;2023-03-02T08:38:41;99294.59;;;1.38;57.93
61906;BME280;47863;55.766;37.672;2023-03-02T08:41:10;99289.25;;;1.27;58.45
61906;BME280;47863;55.766;37.672;2023-03-02T08:43:36;99305.81;;;1.29;58.18
61906;BME280;47863;55.766;37.672;2023-03-02T08:46:02;99299.88;;;1.38;58.20
61906;BME280;47863;55.766;37.672;2023-03-02T08:48:28;99291.97;;;1.50;58.12
61906;BME280;47863;55.766;37.672;2023-03-02T08:51:00;99295.72;;;1.70;57.75
61906;BME280;47863;55.766;37.672;2023-03-02T08:53:28;99274.75;;;1.68;58.07
61906;BME280;47863;55.766;37.672;2023-03-02T08:55:55;99281.00;;;1.78;58.11
61906;BME280;47863;55.766;37.672;2023-03-02T08:58:21;99297.31;;;1.72;57.03
61906;BME280;47863;55.766;37.672;2023-03-02T09:00:46;99268.31;;;1.37;57.67
61906;BME280;47863;55.766;37.672;2023-03-02T09:03:12;99285.81;;;1.38;57.49
61906;BME280;47863;55.766;37.672;2023-03-02T09:05:38;99283.63;;;1.32;57.86
61906;BME280;47863;55.766;37.672;2023-03-02T09:08:04;99300.75;;;1.26;57.64
61906;BME280;47863;55.766;37.672;2023-03-02T09:10:29;99290.44;;;1.23;57.70
61906;BME280;47863;55.766;37.672;2023-03-02T09:12:55;99298.47;;;1.22;57.37
61906;BME280;47863;55.766;37.672;2023-03-02T09:15:20;99249.75;;;0.79;57.90
61906;BME280;47863;55.766;37.672;2023-03-02T09:17:46;99299.81;;;1.27;58.09
61906;BME280;47863;55.766;37.672;2023-03-02T09:20:11;99286.50;;;1.29;57.61
61906;BME280;47863;55.766;37.672;2023-03-02T09:22:38;99280.16;;;1.31;55.52
61906;BME280;47863;55.766;37.672;2023-03-02T09:25:05;99267.94;;;1.06;55.71
61906;BME280;47863;55.766;37.672;2023-03-02T09:27:31;99273.63;;;1.13;55.67
61906;BME280;47863;55.766;37.672;2023-03-02T09:29:57;99273.53;;;1.26;55.46
61906;BME280;47863;55.766;37.672;2023-03-02T09:32:22;99253.88;;;1.18;55.04
61906;BME280;47863;55.766;37.672;2023-03-02T09:34:48;99260.13;;;1.40;55.12
61906;BME280;47863;55.766;37.672;2023-03-02T09:37:14;99277.97;;;1.61;55.39
61906;BME280;47863;55.766;37.672;2023-03-02T09:39:39;99259.09;;;1.54;53.77
61906;BME280;47863;55.766;37.672;2023-03-02T09:46:43;99252.56;;;1.82;53.56
61906;BME280;47863;55.766;37.672;2023-03-02T09:48:52;99236.81;;;2.14;54.20
61906;BME280;47863;55.766;37.672;2023-03-02T09:51:31;99244.38;;;2.30;53.71
61906;BME280;47863;55.766;37.672;2023-03-02T09:56:37;99230.22;;;1.86;53.59
61906;BME280;47863;55.766;37.672;2023-03-02T09:59:09;99217.25;;;1.61;53.43
61906;BME280;47863;55.766;37.672;2023-03-02T10:01:45;99218.78;;;1.52;53.80
61906;BME280;47863;55.766;37.672;2023-03-02T10:04:27;99236.34;;;1.64;53.97
61906;BME280;47863;55.766;37.672;2023-03-02T10:07:04;99249.06;;;1.82;53.36
61906;BME280;47863;55.766;37.672;2023-03-02T10:09:34;99235.63;;;1.85;53.30
61906;BME280;47863;55.766;37.672;2023-03-02T10:12:33;99228.06;;;2.03;52.75
61906;BME280;47863;55.766;37.672;2023-03-02T10:15:11;99216.94;;;2.86;52.99
61906;BME280;47863;55.766;37.672;2023-03-02T10:20:26;99221.69;;;3.88;51.71
61906;BME280;47863;55.766;37.672;2023-03-02T10:23:22;99190.94;;;4.06;51.76
61906;BME280;47863;55.766;37.672;2023-03-02T10:25:50;99198.41;;;4.32;50.77
61906;BME280;47863;55.766;37.672;2023-03-02T10:28:23;99201.66;;;4.55;50.74
61906;BME280;47863;55.766;37.672;2023-03-02T10:31:17;99199.91;;;4.94;50.39
61906;BME280;47863;55.766;37.672;2023-03-02T10:33:41;99168.19;;;4.73;50.29
61906;BME280;47863;55.766;37.672;2023-03-02T10:36:23;99175.84;;;4.57;49.60
61906;BME280;47863;55.766;37.672;2023-03-02T10:38:49;99190.97;;;4.16;51.19
61906;BME280;47863;55.766;37.672;2023-03-02T10:41:43;99196.34;;;3.95;51.69
61906;BME280;47863;55.766;37.672;2023-03-02T10:44:10;99190.81;;;3.46;51.68
61906;BME280;47863;55.766;37.672;2023-03-02T10:46:44;99194.16;;;3.06;51.74
61906;BME280;47863;55.766;37.672;2023-03-02T10:51:59;99162.25;;;2.54;52.79
61906;BME280;47863;55.766;37.672;2023-03-02T10:54:25;99173.78;;;2.65;52.44
61906;BME280;47863;55.766;37.672;2023-03-02T10:56:56;99165.16;;;2.51;52.00
61906;BME280;47863;55.766;37.672;2023-03-02T11:02:08;99165.53;;;2.47;52.37
61906;BME280;47863;55.766;37.672;2023-03-02T11:04:36;99152.88;;;2.62;51.78
61906;BME280;47863;55.766;37.672;2023-03-02T11:07:17;99136.44;;;3.00;51.22
61906;BME280;47863;55.766;37.672;2023-03-02T11:12:22;99144.84;;;3.26;51.04
61906;BME280;47863;55.766;37.672;2023-03-02T11:14:47;99116.09;;;3.22;50.39
61906;BME280;47863;55.766;37.672;2023-03-02T11:17:29;99128.81;;;3.28;49.80
61906;BME280;47863;55.766;37.672;2023-03-02T11:19:56;99121.88;;;2.85;47.83
61906;BME280;47863;55.766;37.672;2023-03-02T11:22:43;99120.75;;;2.34;49.22
61906;BME280;47863;55.766;37.672;2023-03-02T11:25:24;99112.31;;;1.96;48.32
61906;BME280;47863;55.766;37.672;2023-03-02T11:27:59;99081.50;;;1.86;49.76
61906;BME280;47863;55.766;37.672;2023-03-02T11:30:29;99098.06;;;2.31;49.28
61906;BME280;47863;55.766;37.672;2023-03-02T11:33:10;99071.41;;;2.55;49.39
61906;BME280;47863;55.766;37.672;2023-03-02T11:35:51;99103.78;;;2.90;49.05
61906;BME280;47863;55.766;37.672;2023-03-02T11:38:28;99096.38;;;2.84;48.77
61906;BME280;47863;55.766;37.672;2023-03-02T11:40:59;99096.31;;;2.74;48.74
61906;BME280;47863;55.766;37.672;2023-03-02T11:43:27;99078.25;;;2.37;49.00
61906;BME280;47863;55.766;37.672;2023-03-02T11:46:01;99066.50;;;2.18;49.53
61906;BME280;47863;55.766;37.672;2023-03-02T11:48:41;99082.63;;;2.15;50.10
61906;BME280;47863;55.766;37.672;2023-03-02T11:51:13;99085.91;;;1.96;49.89
61906;BME280;47863;55.766;37.672;2023-03-02T11:56:34;99092.94;;;1.52;50.65
61906;BME280;47863;55.766;37.672;2023-03-02T11:59:03;99068.22;;;1.31;51.16
61906;BME280;47863;55.766;37.672;2023-03-02T12:01:33;99080.00;;;1.27;51.22
61906;BME280;47863;55.766;37.672;2023-03-02T12:04:24;99091.38;;;1.27;51.38
61906;BME280;47863;55.766;37.672;2023-03-02T12:06:50;99083.56;;;1.26;51.37
61906;BME280;47863;55.766;37.672;2023-03-02T12:11:54;99085.50;;;1.35;51.33
61906;BME280;47863;55.766;37.672;2023-03-02T12:14:39;99083.81;;;1.34;51.26
61906;BME280;47863;55.766;37.672;2023-03-02T12:19:51;99089.91;;;1.12;51.36
61906;BME280;47863;55.766;37.672;2023-03-02T12:22:30;99079.13;;;1.04;51.33
61906;BME280;47863;55.766;37.672;2023-03-02T12:27:47;99039.06;;;0.76;51.90
61906;BME280;47863;55.766;37.672;2023-03-02T12:35:37;99054.69;;;0.55;52.06
61906;BME280;47863;55.766;37.672;2023-03-02T12:38:21;99026.88;;;0.51;52.72
61906;BME280;47863;55.766;37.672;2023-03-02T12:41:21;99039.78;;;0.89;52.24
61906;BME280;47863;55.766;37.672;2023-03-02T12:44:04;99044.47;;;1.19;51.47
61906;BME280;47863;55.766;37.672;2023-03-02T12:46:36;99033.63;;;1.68;50.90
61906;BME280;47863;55.766;37.672;2023-03-02T12:49:12;99022.19;;;2.22;50.27
61906;BME280;47863;55.766;37.672;2023-03-02T12:54:16;99014.28;;;2.43;50.15
61906;BME280;47863;55.766;37.672;2023-03-02T12:56:42;98982.22;;;2.36;50.49
61906;BME280;47863;55.766;37.672;2023-03-02T12:59:23;98994.75;;;2.55;50.43
61906;BME280;47863;55.766;37.672;2023-03-02T13:01:48;98973.47;;;2.57;50.41
61906;BME280;47863;55.766;37.672;2023-03-02T13:04:25;98990.88;;;2.60;49.22
61906;BME280;47863;55.766;37.672;2023-03-02T13:06:52;98983.47;;;2.53;49.52
61906;BME280;47863;55.766;37.672;2023-03-02T13:09:19;98978.34;;;2.62;49.72
61906;BME280;47863;55.766;37.672;2023-03-02T13:11:46;98979.81;;;2.75;50.05
61906;BME280;47863;55.766;37.672;2023-03-02T13:14:18;98917.78;;;2.28;49.83
61906;BME280;47863;55.766;37.672;2023-03-02T13:16:52;98963.75;;;2.15;49.50
61906;BME280;47863;55.766;37.672;2023-03-02T13:19:18;98916.25;;;1.39;50.01
61906;BME280;47863;55.766;37.672;2023-03-02T13:21:44;98943.53;;;1.06;50.73
61906;BME280;47863;55.766;37.672;2023-03-02T13:27:02;98946.28;;;0.48;52.06
61906;BME280;47863;55.766;37.672;2023-03-02T13:29:28;98952.81;;;0.20;52.73
61906;BME280;47863;55.766;37.672;2023-03-02T13:31:57;98944.53;;;0.02;52.98
61906;BME280;47863;55.766;37.672;2023-03-02T13:34:33;98938.97;;;-0.06;53.68
61906;BME280;47863;55.766;37.672;2023-03-02T13:36:59;98935.22;;;-0.15;53.68
61906;BME280;47863;55.766;37.672;2023-03-02T13:39:29;98930.47;;;-0.10;54.00
61906;BME280;47863;55.766;37.672;2023-03-02T13:42:00;98935.13;;;-0.13;54.03
61906;BME280;47863;55.766;37.672;2023-03-02T13:44:31;98915.00;;;-0.26;54.17
61906;BME280;47863;55.766;37.672;2023-03-02T13:46:57;98928.25;;;-0.27;54.31
61906;BME280;47863;55.766;37.672;2023-03-02T13:49:29;98905.59;;;-0.41;54.39
61906;BME280;47863;55.766;37.672;2023-03-02T13:51:56;98924.00;;;-0.41;54.46
61906;BME280;47863;55.766;37.672;2023-03-02T13:54:27;98930.28;;;-0.55;54.73